Time;durP1;ratioP1;P1;durP2;ratioP2;P2;SDS_P1;SDS_P2;PMS_P1;PMS_P2;Temp;Humidity;BMP_temperature;BMP_pressure;BME280_temperature;BME280_humidity;BME280_pressure;Samples;Min_cycle;Max_cycle;Signal;HPM_P1;HPM_P2
2024/02/07 00:01:49;;;;;;;122.03;82.75;;;;;;;;;;5050856;28;20021;-68
2024/02/07 00:04:15;;;;;;;123.63;83.80;;;;;;;;;;5050251;28;20021;-68
2024/02/07 00:06:41;;;;;;;115.13;79.57;;;;;;;;;;5050019;28;20433;-69
2024/02/07 00:09:08;;;;;;;114.35;78.75;;;;;;;;;;5042841;28;20056;-69
2024/02/07 00:11:34;;;;;;;116.53;81.05;;;;;;;;;;5047529;28;20127;-69
2024/02/07 00:14:00;;;;;;;118.63;79.55;;;;;;;;;;5051790;28;20479;-69
2024/02/07 00:16:26;;;;;;;112.93;76.65;;;;;;;;;;5044844;28;20541;-69
2024/02/07 00:18:52;;;;;;;110.13;77.18;;;;;;;;;;5051431;28;20021;-69
2024/02/07 00:21:18;;;;;;;114.15;78.63;;;;;;;;;;5051650;28;20025;-69
2024/02/07 00:23:44;;;;;;;120.88;79.07;;;;;;;;;;5049746;28;20094;-69
2024/02/07 00:26:11;;;;;;;116.00;77.70;;;;;;;;;;5053495;28;20025;-69
2024/02/07 00:28:37;;;;;;;112.93;77.65;;;;;;;;;;5045459;28;20407;-69
2024/02/07 00:31:04;;;;;;;114.45;78.03;;;;;;;;;;5054750;28;20017;-69
2024/02/07 00:33:30;;;;;;;118.18;77.32;;;;;;;;;;5040856;28;20045;-69
2024/02/07 00:35:56;;;;;;;113.28;74.30;;;;;;;;;;5047928;28;20466;-70
2024/02/07 00:38:23;;;;;;;113.35;77.25;;;;;;;;;;5048008;28;20057;-69
2024/02/07 00:41:01;;;;;;;105.20;71.05;;;;;;;;;;5048870;28;20029;-69
2024/02/07 00:43:27;;;;;;;115.65;75.25;;;;;;;;;;5047623;28;20478;-69
2024/02/07 00:45:53;;;;;;;107.32;72.93;;;;;;;;;;5054762;28;20071;-69
2024/02/07 00:48:19;;;;;;;106.82;73.15;;;;;;;;;;5053762;28;20471;-69
2024/02/07 00:50:46;;;;;;;106.80;72.35;;;;;;;;;;5054523;28;20040;-69
2024/02/07 00:53:12;;;;;;;99.95;71.35;;;;;;;;;;5054134;28;20801;-69
2024/02/07 00:55:38;;;;;;;109.53;72.93;;;;;;;;;;5054388;28;20100;-69
2024/02/07 00:58:06;;;;;;;111.65;72.45;;;;;;;;;;5042092;28;20447;-69
2024/02/07 01:00:32;;;;;;;108.68;72.10;;;;;;;;;;5047121;28;20017;-69
2024/02/07 01:02:58;;;;;;;101.47;68.25;;;;;;;;;;5049695;28;20037;-69
2024/02/07 01:05:24;;;;;;;105.35;70.50;;;;;;;;;;5049365;28;20367;-68
2024/02/07 01:07:50;;;;;;;111.93;73.75;;;;;;;;;;5045805;28;20025;-69
2024/02/07 01:10:16;;;;;;;106.78;71.90;;;;;;;;;;5049358;28;20539;-69
2024/02/07 01:12:42;;;;;;;107.47;72.93;;;;;;;;;;5048350;28;20618;-69
2024/02/07 01:15:08;;;;;;;114.25;75.63;;;;;;;;;;5052417;28;20506;-69
2024/02/07 01:17:34;;;;;;;108.07;74.35;;;;;;;;;;5052798;28;20050;-69
2024/02/07 01:20:02;;;;;;;116.30;74.78;;;;;;;;;;5048066;28;20028;-69
2024/02/07 01:22:30;;;;;;;115.30;74.93;;;;;;;;;;5047104;28;20168;-69
2024/02/07 01:24:56;;;;;;;113.65;75.45;;;;;;;;;;5047461;28;20158;-69
2024/02/07 01:27:22;;;;;;;113.55;78.45;;;;;;;;;;5053301;28;20025;-69
2024/02/07 01:29:49;;;;;;;117.18;77.13;;;;;;;;;;5050637;28;20044;-69
2024/02/07 01:32:16;;;;;;;110.38;76.25;;;;;;;;;;5052478;28;20025;-69
2024/02/07 01:34:42;;;;;;;110.18;74.88;;;;;;;;;;5053826;28;20569;-69
2024/02/07 01:37:09;;;;;;;110.97;76.47;;;;;;;;;;5052091;28;20552;-69
2024/02/07 01:39:35;;;;;;;112.72;78.85;;;;;;;;;;5052243;28;20471;-69
2024/02/07 01:42:02;;;;;;;117.47;81.15;;;;;;;;;;5047408;28;20033;-69
2024/02/07 01:44:29;;;;;;;112.25;80.70;;;;;;;;;;5051954;28;20029;-69
2024/02/07 01:47:14;;;;;;;123.38;82.03;;;;;;;;;;5050537;28;20135;-69
2024/02/07 01:49:40;;;;;;;118.03;81.30;;;;;;;;;;5047310;28;20104;-69
2024/02/07 01:52:07;;;;;;;118.00;77.95;;;;;;;;;;5051971;28;20454;-69
2024/02/07 01:54:33;;;;;;;112.28;77.22;;;;;;;;;;5044185;28;20033;-69
2024/02/07 01:56:59;;;;;;;111.40;73.53;;;;;;;;;;5053625;28;20017;-69
2024/02/07 01:59:26;;;;;;;107.13;74.93;;;;;;;;;;5040806;28;20100;-69
2024/02/07 02:01:52;;;;;;;113.15;76.65;;;;;;;;;;5043118;28;20052;-69
2024/02/07 02:04:18;;;;;;;108.85;71.63;;;;;;;;;;5050414;28;20021;-69
2024/02/07 02:06:44;;;;;;;106.53;71.32;;;;;;;;;;5053078;28;20025;-69
2024/02/07 02:09:10;;;;;;;101.72;69.88;;;;;;;;;;5042172;28;20057;-69
2024/02/07 02:11:38;;;;;;;107.78;70.85;;;;;;;;;;5052010;28;20108;-69
2024/02/07 02:14:05;;;;;;;107.28;72.75;;;;;;;;;;5049992;28;20033;-69
2024/02/07 02:16:31;;;;;;;101.00;68.97;;;;;;;;;;5052306;28;20025;-70
2024/02/07 02:18:58;;;;;;;96.80;67.00;;;;;;;;;;5050764;28;20159;-70
2024/02/07 02:21:27;;;;;;;100.60;68.05;;;;;;;;;;5049750;28;20036;-69
2024/02/07 02:23:53;;;;;;;106.15;71.00;;;;;;;;;;5042747;28;20076;-69
2024/02/07 02:26:35;;;;;;;107.28;68.22;;;;;;;;;;5051364;28;20064;-69
2024/02/07 02:29:21;;;;;;;102.13;69.18;;;;;;;;;;5051149;28;20032;-69
2024/02/07 02:31:51;;;;;;;98.85;66.03;;;;;;;;;;5047899;28;20021;-69
2024/02/07 02:34:18;;;;;;;99.63;65.30;;;;;;;;;;5043204;28;20013;-70
2024/02/07 02:36:44;;;;;;;96.45;65.60;;;;;;;;;;5047908;28;20510;-69
2024/02/07 02:39:10;;;;;;;93.70;65.60;;;;;;;;;;5043535;28;20061;-69
2024/02/07 02:41:36;;;;;;;96.78;64.30;;;;;;;;;;5062560;28;20121;-69
2024/02/07 02:44:02;;;;;;;88.85;61.08;;;;;;;;;;5051325;28;20059;-70
2024/02/07 02:46:29;;;;;;;94.55;62.78;;;;;;;;;;5052849;28;20110;-70
2024/02/07 02:48:55;;;;;;;94.68;62.08;;;;;;;;;;5051245;28;20025;-69
2024/02/07 02:51:21;;;;;;;93.22;62.53;;;;;;;;;;5044029;28;20430;-70
2024/02/07 02:53:48;;;;;;;99.20;63.08;;;;;;;;;;5051854;28;20025;-70
2024/02/07 02:56:15;;;;;;;94.40;61.38;;;;;;;;;;5051012;28;20470;-70
2024/02/07 02:58:41;;;;;;;95.95;63.53;;;;;;;;;;5046517;28;20041;-70
2024/02/07 03:01:07;;;;;;;92.80;63.00;;;;;;;;;;5043799;28;20033;-70
2024/02/07 03:03:33;;;;;;;92.97;63.78;;;;;;;;;;5050050;28;20052;-69
2024/02/07 03:06:00;;;;;;;94.50;61.42;;;;;;;;;;5049778;28;20056;-70
2024/02/07 03:08:39;;;;;;;92.07;59.88;;;;;;;;;;5050561;28;20029;-70
2024/02/07 03:11:06;;;;;;;92.25;59.50;;;;;;;;;;5051269;28;20131;-69
2024/02/07 03:13:34;;;;;;;91.75;60.40;;;;;;;;;;5045252;28;20538;-70
2024/02/07 03:16:02;;;;;;;90.00;59.42;;;;;;;;;;5052269;28;20110;-70
2024/02/07 03:18:28;;;;;;;86.95;57.13;;;;;;;;;;5051657;28;20420;-70
2024/02/07 03:20:55;;;;;;;83.15;57.03;;;;;;;;;;5051911;28;20017;-70
2024/02/07 03:23:21;;;;;;;91.00;57.88;;;;;;;;;;5049057;28;20045;-70
2024/02/07 03:25:47;;;;;;;88.10;58.08;;;;;;;;;;5051888;28;20052;-70
2024/02/07 03:28:16;;;;;;;90.43;59.35;;;;;;;;;;5051777;28;20104;-70
2024/02/07 03:30:42;;;;;;;94.18;57.08;;;;;;;;;;5050607;28;20386;-70
2024/02/07 03:33:08;;;;;;;86.15;56.92;;;;;;;;;;5044854;28;20090;-70
2024/02/07 03:35:34;;;;;;;88.57;59.63;;;;;;;;;;5050416;28;20422;-70
2024/02/07 03:38:00;;;;;;;81.38;58.22;;;;;;;;;;5047850;28;20037;-70
2024/02/07 03:40:27;;;;;;;89.63;58.72;;;;;;;;;;5044204;28;20031;-70
2024/02/07 03:42:53;;;;;;;85.78;57.83;;;;;;;;;;5051899;28;20037;-70
2024/02/07 03:45:19;;;;;;;91.13;58.47;;;;;;;;;;5051622;28;20127;-70
2024/02/07 03:47:45;;;;;;;87.03;58.00;;;;;;;;;;5043271;28;20025;-70
2024/02/07 03:50:11;;;;;;;88.43;58.83;;;;;;;;;;5051669;28;20021;-70
2024/02/07 03:52:39;;;;;;;83.47;56.63;;;;;;;;;;5039792;28;20029;-70
2024/02/07 03:55:08;;;;;;;84.45;56.13;;;;;;;;;;5042525;28;20017;-70
2024/02/07 03:57:37;;;;;;;82.57;54.15;;;;;;;;;;5050986;28;20025;-70
2024/02/07 04:00:13;;;;;;;84.57;55.53;;;;;;;;;;5052144;28;20025;-70
2024/02/07 04:02:39;;;;;;;84.70;55.00;;;;;;;;;;5053652;28;20102;-70
2024/02/07 04:05:09;;;;;;;75.28;51.78;;;;;;;;;;5054189;28;20051;-70
2024/02/07 04:07:35;;;;;;;83.85;55.95;;;;;;;;;;5053775;28;20079;-70
2024/02/07 04:10:03;;;;;;;86.82;56.17;;;;;;;;;;5053912;28;20052;-70
2024/02/07 05:17:24;;;;;;;71.88;45.97;;;;;;;;;;5039232;28;20061;-70
2024/02/07 05:19:51;;;;;;;70.72;48.17;;;;;;;;;;5038652;28;20021;-71
2024/02/07 05:22:17;;;;;;;70.47;46.92;;;;;;;;;;5054202;28;20353;-70
2024/02/07 05:24:47;;;;;;;68.30;46.55;;;;;;;;;;5051808;28;20021;-70
2024/02/07 05:27:14;;;;;;;71.72;48.47;;;;;;;;;;5044832;28;20113;-70
2024/02/07 05:29:40;;;;;;;74.22;49.55;;;;;;;;;;5048326;28;20094;-69
2024/02/07 05:32:07;;;;;;;72.00;49.63;;;;;;;;;;5053851;28;20037;-71
2024/02/07 05:34:36;;;;;;;69.50;47.20;;;;;;;;;;5049860;28;20025;-70
2024/02/07 05:37:02;;;;;;;75.25;50.08;;;;;;;;;;5039719;28;20033;-71
2024/02/07 05:39:33;;;;;;;72.25;47.80;;;;;;;;;;5053600;28;20075;-71
2024/02/07 05:42:00;;;;;;;72.25;49.28;;;;;;;;;;5052767;28;20017;-70
2024/02/07 05:44:26;;;;;;;74.88;48.30;;;;;;;;;;5048146;28;20093;-71
2024/02/07 05:46:52;;;;;;;76.63;47.72;;;;;;;;;;5047492;28;20028;-70
2024/02/07 05:49:18;;;;;;;75.10;48.47;;;;;;;;;;5046517;28;20025;-71
2024/02/07 05:51:56;;;;;;;74.70;49.50;;;;;;;;;;5046614;28;20106;-70
2024/02/07 05:54:23;;;;;;;77.05;51.38;;;;;;;;;;5047469;28;20020;-70
2024/02/07 05:56:49;;;;;;;72.35;49.35;;;;;;;;;;5040790;28;20041;-70
2024/02/07 05:59:15;;;;;;;79.63;53.30;;;;;;;;;;5044734;28;20428;-71
2024/02/07 06:01:41;;;;;;;81.82;53.30;;;;;;;;;;5052996;28;20028;-70
2024/02/07 06:04:07;;;;;;;83.43;57.20;;;;;;;;;;5053540;28;20494;-71
2024/02/07 06:06:33;;;;;;;93.28;62.58;;;;;;;;;;5046603;28;20028;-71
2024/02/07 06:08:59;;;;;;;105.53;70.03;;;;;;;;;;5051530;28;20044;-71
2024/02/07 06:11:31;;;;;;;106.72;70.47;;;;;;;;;;5050350;28;20041;-70
2024/02/07 06:13:59;;;;;;;109.32;70.93;;;;;;;;;;5045655;28;20039;-70
2024/02/07 06:16:25;;;;;;;110.53;72.53;;;;;;;;;;5052906;28;20083;-70
2024/02/07 06:18:51;;;;;;;108.30;71.95;;;;;;;;;;5051069;28;20075;-71
2024/02/07 06:21:17;;;;;;;111.30;74.70;;;;;;;;;;5043261;28;20022;-71
2024/02/07 06:23:43;;;;;;;112.22;76.90;;;;;;;;;;5050811;28;20102;-70
2024/02/07 06:26:09;;;;;;;112.72;76.15;;;;;;;;;;5044571;28;20037;-70
2024/02/07 06:28:35;;;;;;;116.70;78.40;;;;;;;;;;5050726;28;20447;-70
2024/02/07 06:31:01;;;;;;;110.35;75.78;;;;;;;;;;5047132;28;20116;-71
2024/02/07 06:33:27;;;;;;;118.55;77.15;;;;;;;;;;5050219;28;20021;-70
2024/02/07 06:35:53;;;;;;;115.40;77.97;;;;;;;;;;5050178;28;20029;-70
2024/02/07 06:38:19;;;;;;;114.97;75.65;;;;;;;;;;5043208;28;20033;-70
2024/02/07 06:40:45;;;;;;;116.25;77.88;;;;;;;;;;5044697;28;20124;-70
2024/02/07 06:43:11;;;;;;;118.07;77.72;;;;;;;;;;5052501;28;20041;-70
2024/02/07 06:45:37;;;;;;;111.97;75.93;;;;;;;;;;5051488;28;20013;-70
2024/02/07 06:48:04;;;;;;;114.57;75.63;;;;;;;;;;5052588;28;20114;-70
2024/02/07 06:50:30;;;;;;;116.47;78.57;;;;;;;;;;5051016;28;20044;-70
2024/02/07 06:52:56;;;;;;;112.60;76.13;;;;;;;;;;5052805;28;20094;-70
2024/02/07 06:55:23;;;;;;;106.78;72.85;;;;;;;;;;5052750;28;20044;-70
2024/02/07 06:57:49;;;;;;;107.50;73.78;;;;;;;;;;5052054;28;20032;-70
2024/02/07 07:00:17;;;;;;;115.55;76.00;;;;;;;;;;5052548;28;20029;-69
2024/02/07 07:02:43;;;;;;;110.47;71.90;;;;;;;;;;5034870;28;20095;-70
2024/02/07 07:05:09;;;;;;;110.78;71.07;;;;;;;;;;5044713;28;20036;-70
2024/02/07 07:07:35;;;;;;;106.60;70.22;;;;;;;;;;5049529;28;20021;-70
2024/02/07 07:10:01;;;;;;;107.20;71.70;;;;;;;;;;5050842;28;20025;-70
2024/02/07 07:12:27;;;;;;;107.13;69.60;;;;;;;;;;5051996;28;20419;-70
2024/02/07 07:14:54;;;;;;;107.43;68.25;;;;;;;;;;5052488;28;20017;-70
2024/02/07 07:17:20;;;;;;;102.63;67.47;;;;;;;;;;5052401;28;20025;-70
2024/02/07 07:19:46;;;;;;;106.75;67.22;;;;;;;;;;5051782;28;20505;-70
2024/02/07 07:22:12;;;;;;;106.07;69.13;;;;;;;;;;5048475;28;20114;-70
2024/02/07 07:24:38;;;;;;;99.15;66.30;;;;;;;;;;5060436;28;20391;-63
2024/02/07 07:27:04;;;;;;;92.47;61.13;;;;;;;;;;5043395;28;20101;-73
2024/02/07 07:29:30;;;;;;;93.32;64.57;;;;;;;;;;5044059;28;20103;-65
2024/02/07 07:32:00;;;;;;;95.90;64.63;;;;;;;;;;5049663;28;20040;-64
2024/02/07 07:34:28;;;;;;;100.45;65.82;;;;;;;;;;5044039;28;20032;-59
2024/02/07 07:36:55;;;;;;;101.55;69.15;;;;;;;;;;5055810;28;20029;-56
2024/02/07 07:39:21;;;;;;;107.20;65.53;;;;;;;;;;5051110;28;20468;-67
2024/02/07 07:41:47;;;;;;;96.60;62.97;;;;;;;;;;5052422;28;20025;-67
2024/02/07 07:44:13;;;;;;;97.00;66.15;;;;;;;;;;5059034;28;20045;-63
2024/02/07 07:46:40;;;;;;;105.85;69.13;;;;;;;;;;5060551;28;20393;-63
2024/02/07 07:49:06;;;;;;;102.00;66.25;;;;;;;;;;5060585;28;20032;-64
2024/02/07 07:51:32;;;;;;;105.60;67.90;;;;;;;;;;5055682;28;20025;-63
2024/02/07 07:53:58;;;;;;;87.30;59.22;;;;;;;;;;5055668;28;20137;-59
2024/02/07 07:56:27;;;;;;;89.03;61.45;;;;;;;;;;5057712;28;20063;-60
2024/02/07 07:58:53;;;;;;;101.40;62.50;;;;;;;;;;5064233;28;20040;-60
2024/02/07 08:01:21;;;;;;;91.93;59.65;;;;;;;;;;5055110;28;20025;-56
2024/02/07 08:03:47;;;;;;;90.05;57.85;;;;;;;;;;5054210;28;20387;-60
2024/02/07 08:06:13;;;;;;;88.88;58.20;;;;;;;;;;5055188;28;20017;-63
2024/02/07 08:08:39;;;;;;;90.68;57.08;;;;;;;;;;5043241;28;20843;-59
2024/02/07 08:11:05;;;;;;;85.22;54.33;;;;;;;;;;5052353;28;20427;-69
2024/02/07 08:13:32;;;;;;;83.82;54.40;;;;;;;;;;5059388;28;20132;-68
2024/02/07 08:16:00;;;;;;;76.30;51.45;;;;;;;;;;5051344;28;20055;-60
2024/02/07 08:18:26;;;;;;;86.25;54.40;;;;;;;;;;5064822;28;20036;-66
2024/02/07 08:20:53;;;;;;;84.47;52.22;;;;;;;;;;5054916;28;20475;-73
2024/02/07 08:23:19;;;;;;;79.28;51.55;;;;;;;;;;5054863;28;20120;-64
2024/02/07 08:25:45;;;;;;;80.60;51.58;;;;;;;;;;5054778;28;20131;-58
2024/02/07 08:28:11;;;;;;;75.85;50.40;;;;;;;;;;5053019;28;20043;-62
2024/02/07 08:30:38;;;;;;;74.07;50.25;;;;;;;;;;5041976;28;20057;-74
2024/02/07 08:33:04;;;;;;;83.32;52.40;;;;;;;;;;5047326;28;20112;-60
2024/02/07 08:35:30;;;;;;;85.68;52.28;;;;;;;;;;5043660;28;20039;-66
2024/02/07 08:37:58;;;;;;;78.78;51.70;;;;;;;;;;5052928;28;20119;-67
2024/02/07 08:40:28;;;;;;;83.30;54.97;;;;;;;;;;5054272;28;20070;-67
2024/02/07 08:42:54;;;;;;;89.15;56.83;;;;;;;;;;5052861;28;20029;-66
2024/02/07 08:45:23;;;;;;;86.97;57.17;;;;;;;;;;5040241;28;20025;-67
2024/02/07 08:47:49;;;;;;;90.25;60.47;;;;;;;;;;5054941;28;20112;-60
2024/02/07 08:50:16;;;;;;;91.05;59.45;;;;;;;;;;5052734;28;20025;-57
2024/02/07 08:52:42;;;;;;;91.05;57.70;;;;;;;;;;5043774;28;20173;-68
2024/02/07 08:55:09;;;;;;;78.60;54.30;;;;;;;;;;5065677;28;20506;-72
2024/02/07 08:57:35;;;;;;;79.20;51.20;;;;;;;;;;5049681;28;20021;-70
2024/02/07 09:00:02;;;;;;;74.80;52.03;;;;;;;;;;5035120;28;20037;-68
2024/02/07 09:02:28;;;;;;;78.25;50.72;;;;;;;;;;5043702;28;20041;-72
2024/02/07 09:04:54;;;;;;;76.22;48.70;;;;;;;;;;5054047;28;20414;-69
2024/02/07 09:07:20;;;;;;;72.50;48.20;;;;;;;;;;5053770;28;20116;-68
2024/02/07 09:09:46;;;;;;;73.15;47.65;;;;;;;;;;5053911;28;20032;-63
2024/02/07 09:12:12;;;;;;;75.68;47.25;;;;;;;;;;5053636;28;20056;-65
2024/02/07 09:14:38;;;;;;;78.28;48.08;;;;;;;;;;5048749;28;20076;-72
2024/02/07 09:17:04;;;;;;;75.55;48.58;;;;;;;;;;5050380;28;20032;-66
2024/02/07 09:19:30;;;;;;;67.65;45.72;;;;;;;;;;5056135;28;20025;-76
2024/02/07 09:21:56;;;;;;;77.55;44.42;;;;;;;;;;5048188;28;20025;-69
2024/02/07 09:24:22;;;;;;;77.35;47.97;;;;;;;;;;5053693;28;20040;-64
2024/02/07 09:26:49;;;;;;;68.22;44.72;;;;;;;;;;5053955;28;20427;-61
2024/02/07 09:29:15;;;;;;;68.63;44.60;;;;;;;;;;5047007;28;20034;-63
2024/02/07 09:31:41;;;;;;;59.72;42.13;;;;;;;;;;5048862;28;20018;-67
2024/02/07 09:34:07;;;;;;;61.65;41.60;;;;;;;;;;5053296;28;20025;-64
2024/02/07 09:36:38;;;;;;;60.67;41.35;;;;;;;;;;5043659;28;20029;-64
2024/02/07 09:39:04;;;;;;;521.85;408.05;;;;;;;;;;5051985;28;20404;-67
2024/02/07 09:41:31;;;;;;;138.88;106.13;;;;;;;;;;5051748;28;20022;-75
2024/02/07 09:43:57;;;;;;;68.80;42.85;;;;;;;;;;5052929;28;20124;-76
2024/02/07 09:46:25;;;;;;;62.00;41.95;;;;;;;;;;5053087;28;20032;-65
2024/02/07 09:48:53;;;;;;;67.03;41.97;;;;;;;;;;5043992;28;20025;-61
2024/02/07 09:51:20;;;;;;;61.88;41.50;;;;;;;;;;5047197;28;20024;-67
2024/02/07 09:53:47;;;;;;;60.72;40.20;;;;;;;;;;5058096;28;20025;-60
2024/02/07 09:56:13;;;;;;;70.18;42.97;;;;;;;;;;5045423;28;20079;-61
2024/02/07 09:58:42;;;;;;;62.53;40.70;;;;;;;;;;5038951;28;20125;-65
2024/02/07 10:01:09;;;;;;;65.30;41.92;;;;;;;;;;5052060;28;20032;-62
2024/02/07 10:03:37;;;;;;;59.47;40.38;;;;;;;;;;5052636;28;20072;-68
2024/02/07 10:06:03;;;;;;;54.30;37.47;;;;;;;;;;5051670;28;20074;-69
2024/02/07 10:08:29;;;;;;;57.65;35.78;;;;;;;;;;5050739;28;20021;-68
2024/02/07 10:10:57;;;;;;;55.45;38.65;;;;;;;;;;5051899;28;20593;-68
2024/02/07 10:13:25;;;;;;;57.03;37.75;;;;;;;;;;5051817;28;20355;-72
2024/02/07 10:15:51;;;;;;;56.05;37.80;;;;;;;;;;5051990;28;20075;-72
2024/02/07 10:18:30;;;;;;;60.78;40.78;;;;;;;;;;5049218;28;20798;-66
2024/02/07 10:20:56;;;;;;;61.78;40.30;;;;;;;;;;5034301;28;20037;-63
2024/02/07 10:23:22;;;;;;;56.75;40.15;;;;;;;;;;5036400;28;20063;-61
2024/02/07 10:25:52;;;;;;;60.95;38.95;;;;;;;;;;5036065;28;20573;-68
2024/02/07 10:28:18;;;;;;;60.22;40.58;;;;;;;;;;5037698;28;20084;-69
2024/02/07 10:30:55;;;;;;;66.00;39.80;;;;;;;;;;5041421;28;20210;-64
2024/02/07 10:33:21;;;;;;;66.30;43.30;;;;;;;;;;5029985;28;20030;-65
2024/02/07 10:35:47;;;;;;;66.43;40.67;;;;;;;;;;5040438;28;20382;-64
2024/02/07 10:38:13;;;;;;;61.65;42.30;;;;;;;;;;5034594;28;20029;-61
2024/02/07 10:40:40;;;;;;;57.33;37.67;;;;;;;;;;5038502;28;20034;-60
2024/02/07 10:43:06;;;;;;;58.53;40.35;;;;;;;;;;5043933;28;20392;-69
2024/02/07 10:45:32;;;;;;;59.10;41.10;;;;;;;;;;5029305;28;20064;-66
2024/02/07 10:47:58;;;;;;;65.57;40.72;;;;;;;;;;5029107;28;20370;-62
2024/02/07 10:50:24;;;;;;;62.72;41.25;;;;;;;;;;5018207;28;20026;-61
2024/02/07 10:52:50;;;;;;;57.55;37.00;;;;;;;;;;5028812;28;20028;-67
2024/02/07 10:55:18;;;;;;;56.22;36.35;;;;;;;;;;5042654;28;20018;-71
2024/02/07 10:57:45;;;;;;;57.55;38.65;;;;;;;;;;5033740;28;20029;-70
2024/02/07 11:00:12;;;;;;;52.65;33.85;;;;;;;;;;5028607;28;20095;-66
2024/02/07 11:02:39;;;;;;;52.10;33.17;;;;;;;;;;5028959;28;20040;-70
2024/02/07 11:05:05;;;;;;;44.35;31.15;;;;;;;;;;5039640;28;20029;-71
2024/02/07 11:07:32;;;;;;;47.20;30.50;;;;;;;;;;5041243;28;20026;-65
2024/02/07 11:09:59;;;;;;;43.88;31.67;;;;;;;;;;5026065;28;20029;-64
2024/02/07 11:12:25;;;;;;;47.00;32.78;;;;;;;;;;5032802;28;20384;-65
2024/02/07 11:14:52;;;;;;;55.97;33.38;;;;;;;;;;5041233;28;20025;-67
2024/02/07 11:17:18;;;;;;;43.47;30.35;;;;;;;;;;5028185;28;20060;-72
2024/02/07 11:19:44;;;;;;;44.97;31.75;;;;;;;;;;5019427;28;20030;-73
2024/02/07 11:22:21;;;;;;;43.08;30.75;;;;;;;;;;5028117;28;20029;-64
2024/02/07 11:24:49;;;;;;;45.15;32.08;;;;;;;;;;5032933;28;20028;-64
2024/02/07 11:27:15;;;;;;;42.33;31.40;;;;;;;;;;5035633;28;20022;-69
2024/02/07 11:29:45;;;;;;;46.25;29.90;;;;;;;;;;5013297;28;20018;-69
2024/02/07 11:32:12;;;;;;;41.60;28.00;;;;;;;;;;5015292;28;20453;-63
2024/02/07 11:34:41;;;;;;;39.90;25.55;;;;;;;;;;5007306;28;20025;-63
2024/02/07 11:37:11;;;;;;;32.92;24.45;;;;;;;;;;5014802;28;20123;-63
2024/02/07 11:39:40;;;;;;;35.58;24.98;;;;;;;;;;5002355;28;20088;-63
2024/02/07 11:42:15;;;;;;;32.05;22.23;;;;;;;;;;5014472;28;20018;-63
2024/02/07 11:44:52;;;;;;;38.00;25.25;;;;;;;;;;5014702;28;20054;-66
2024/02/07 11:47:29;;;;;;;194.73;162.73;;;;;;;;;;5009814;28;20430;-62
2024/02/07 11:49:57;;;;;;;37.78;27.77;;;;;;;;;;5014806;28;20030;-64
2024/02/07 11:52:36;;;;;;;38.75;27.70;;;;;;;;;;5014751;28;20084;-64
2024/02/07 11:55:08;;;;;;;39.88;27.40;;;;;;;;;;5014502;28;20030;-64
2024/02/07 11:57:34;;;;;;;34.53;25.00;;;;;;;;;;5014670;28;20404;-64
2024/02/07 12:00:01;;;;;;;39.75;27.75;;;;;;;;;;5010329;28;20060;-64
2024/02/07 12:02:28;;;;;;;42.58;29.30;;;;;;;;;;5014893;28;20037;-63
2024/02/07 12:04:54;;;;;;;42.10;30.17;;;;;;;;;;5000807;28;20037;-64
2024/02/07 12:07:20;;;;;;;47.42;31.30;;;;;;;;;;5013525;28;20030;-69
2024/02/07 12:09:46;;;;;;;45.63;31.23;;;;;;;;;;5014487;28;20045;-66
2024/02/07 12:12:13;;;;;;;46.42;32.03;;;;;;;;;;5014490;28;20475;-65
2024/02/07 12:14:40;;;;;;;46.63;31.20;;;;;;;;;;5014236;28;20030;-66
2024/02/07 12:17:07;;;;;;;44.38;29.95;;;;;;;;;;5014440;28;20050;-66
2024/02/07 12:19:36;;;;;;;50.80;32.28;;;;;;;;;;5014373;28;20021;-66
2024/02/07 12:22:05;;;;;;;45.60;31.55;;;;;;;;;;5014424;28;20503;-67
2024/02/07 12:24:31;;;;;;;39.47;27.38;;;;;;;;;;5001048;28;20073;-67
2024/02/07 12:27:10;;;;;;;38.42;29.08;;;;;;;;;;5001864;28;20022;-66
2024/02/07 12:29:36;;;;;;;40.85;27.33;;;;;;;;;;5007544;28;20055;-72
2024/02/07 12:32:03;;;;;;;52.10;37.22;;;;;;;;;;4999857;28;20490;-72
2024/02/07 12:34:29;;;;;;;40.00;25.70;;;;;;;;;;5014119;28;20034;-71
2024/02/07 12:36:55;;;;;;;36.55;24.27;;;;;;;;;;5008709;28;20036;-60
2024/02/07 12:39:21;;;;;;;34.30;25.30;;;;;;;;;;5010588;28;20037;-60
2024/02/07 12:41:48;;;;;;;41.20;26.20;;;;;;;;;;5026715;28;20495;-60
2024/02/07 12:44:15;;;;;;;38.15;25.70;;;;;;;;;;5017883;28;20032;-60
2024/02/07 12:46:41;;;;;;;36.67;23.05;;;;;;;;;;5014715;28;20032;-60
2024/02/07 12:49:10;;;;;;;37.75;25.58;;;;;;;;;;5006402;28;20026;-69
2024/02/07 12:51:36;;;;;;;33.63;22.58;;;;;;;;;;5025218;28;20026;-69
2024/02/07 12:54:02;;;;;;;29.85;20.80;;;;;;;;;;5023258;28;20025;-72
2024/02/07 12:56:28;;;;;;;30.75;19.83;;;;;;;;;;5007314;28;20029;-75
2024/02/07 12:58:54;;;;;;;25.42;18.70;;;;;;;;;;5013428;28;20464;-75
2024/02/07 13:01:24;;;;;;;31.17;19.90;;;;;;;;;;5017617;28;20041;-68
2024/02/07 13:03:50;;;;;;;28.20;18.35;;;;;;;;;;5020890;28;20017;-69
2024/02/07 13:06:18;;;;;;;28.60;18.20;;;;;;;;;;5025446;28;20515;-68
2024/02/07 13:08:44;;;;;;;26.63;18.85;;;;;;;;;;5002347;28;20026;-71
2024/02/07 13:11:10;;;;;;;24.25;17.48;;;;;;;;;;5012701;28;20081;-62
2024/02/07 13:13:36;;;;;;;26.13;18.80;;;;;;;;;;5013622;28;20427;-62
2024/02/07 13:16:02;;;;;;;22.67;16.52;;;;;;;;;;5024163;28;20095;-62
2024/02/07 13:18:28;;;;;;;24.38;16.25;;;;;;;;;;5004517;28;20045;-61
2024/02/07 13:20:54;;;;;;;27.13;17.35;;;;;;;;;;5018612;28;20022;-59
2024/02/07 13:23:23;;;;;;;25.70;18.33;;;;;;;;;;5013002;28;20033;-55
2024/02/07 13:25:51;;;;;;;26.10;16.05;;;;;;;;;;5023086;28;20468;-60
2024/02/07 13:28:17;;;;;;;22.33;14.48;;;;;;;;;;5013280;28;20061;-64
2024/02/07 13:30:43;;;;;;;24.13;15.43;;;;;;;;;;5013401;28;20487;-64
2024/02/07 13:33:10;;;;;;;25.08;14.95;;;;;;;;;;5001541;28;20036;-60
2024/02/07 13:35:36;;;;;;;27.23;16.83;;;;;;;;;;5013691;28;20092;-69
2024/02/07 13:38:02;;;;;;;23.00;15.98;;;;;;;;;;5013759;28;20041;-56
2024/02/07 13:40:28;;;;;;;22.92;15.48;;;;;;;;;;5028004;28;20048;-57
2024/02/07 13:42:54;;;;;;;39.80;27.27;;;;;;;;;;5018088;28;20065;-63
2024/02/07 13:45:20;;;;;;;43.35;32.28;;;;;;;;;;5027732;28;20065;-60
2024/02/07 13:47:46;;;;;;;22.27;14.55;;;;;;;;;;4998467;28;20031;-67
2024/02/07 13:50:13;;;;;;;21.38;13.65;;;;;;;;;;5012624;28;20030;-67
2024/02/07 13:52:39;;;;;;;22.88;14.68;;;;;;;;;;5012492;28;20471;-67
2024/02/07 13:55:05;;;;;;;25.65;14.38;;;;;;;;;;5012344;28;20026;-67
2024/02/07 13:57:31;;;;;;;23.17;14.73;;;;;;;;;;5011185;28;20140;-67
2024/02/07 13:59:57;;;;;;;19.92;13.60;;;;;;;;;;5012383;28;20022;-67
2024/02/07 14:02:23;;;;;;;20.58;13.60;;;;;;;;;;5006868;28;20502;-66
2024/02/07 14:04:49;;;;;;;21.90;14.23;;;;;;;;;;5010200;28;20022;-67
2024/02/07 14:07:15;;;;;;;23.40;14.90;;;;;;;;;;5010126;28;20247;-67
2024/02/07 14:09:41;;;;;;;20.70;13.98;;;;;;;;;;5010919;28;20073;-67
2024/02/07 14:12:07;;;;;;;21.92;13.18;;;;;;;;;;5010249;28;20029;-67
2024/02/07 14:14:33;;;;;;;24.38;13.32;;;;;;;;;;5010877;28;20016;-67
2024/02/07 14:17:00;;;;;;;23.70;14.50;;;;;;;;;;5011187;28;20046;-67
2024/02/07 14:19:26;;;;;;;20.63;14.55;;;;;;;;;;5003474;28;20025;-67
2024/02/07 14:21:52;;;;;;;23.15;13.75;;;;;;;;;;5010584;28;20030;-68
2024/02/07 14:24:18;;;;;;;20.35;12.57;;;;;;;;;;5008059;28;20030;-68
2024/02/07 14:26:44;;;;;;;19.20;12.35;;;;;;;;;;5010924;28;20483;-68
2024/02/07 14:29:10;;;;;;;17.77;12.10;;;;;;;;;;5012296;28;20105;-68
2024/02/07 14:31:36;;;;;;;21.38;12.50;;;;;;;;;;5012400;28;20121;-61
2024/02/07 14:34:02;;;;;;;14.25;10.23;;;;;;;;;;5012416;28;20463;-60
2024/02/07 14:36:28;;;;;;;14.82;9.95;;;;;;;;;;5026585;28;20486;-63
2024/02/07 14:38:54;;;;;;;16.35;10.35;;;;;;;;;;5011778;28;20499;-62
2024/02/07 14:41:22;;;;;;;16.15;9.85;;;;;;;;;;5011380;28;20025;-62
2024/02/07 14:43:48;;;;;;;15.98;10.68;;;;;;;;;;5009938;28;20484;-62
2024/02/07 14:46:14;;;;;;;15.52;9.13;;;;;;;;;;5010298;28;20030;-63
2024/02/07 14:48:40;;;;;;;15.98;10.02;;;;;;;;;;4998090;28;20096;-63
2024/02/07 14:51:06;;;;;;;13.57;9.50;;;;;;;;;;5001411;28;20071;-60
2024/02/07 14:53:32;;;;;;;18.45;11.23;;;;;;;;;;5010671;28;20030;-61
2024/02/07 14:55:59;;;;;;;20.00;10.85;;;;;;;;;;5009970;28;20026;-61
2024/02/07 14:58:26;;;;;;;15.80;10.45;;;;;;;;;;5008084;28;20049;-60
2024/02/07 15:00:52;;;;;;;15.88;11.63;;;;;;;;;;5010173;28;20014;-60
2024/02/07 15:03:18;;;;;;;21.02;11.88;;;;;;;;;;5010824;28;20579;-61
2024/02/07 15:05:44;;;;;;;17.75;11.77;;;;;;;;;;5013527;28;20029;-60
2024/02/07 15:08:11;;;;;;;18.42;12.38;;;;;;;;;;5013889;28;20037;-60
2024/02/07 15:10:38;;;;;;;18.90;11.02;;;;;;;;;;5013329;28;20062;-60
2024/02/07 15:13:04;;;;;;;20.10;11.90;;;;;;;;;;5013236;28;20030;-60
2024/02/07 15:15:30;;;;;;;20.40;11.02;;;;;;;;;;5015055;28;20116;-60
2024/02/07 15:17:56;;;;;;;14.88;11.77;;;;;;;;;;5015140;28;20052;-60